Edinburgh Airport, United Kingdom

11:08 AM GMT on February 07, 2016 (GMT +0000)
Edinburgh Airport | | Change Station
CLOSE
Current Station
Airport
Location: Edinburgh Airport,
Elevation: 135 ft
Nearby Weather Stations

Elev 135 ft 55.95 °N, 3.35 °W | Updated 18 minutes ago

Light Rain
Light Rain
41 °F
Feels Like 30 °F
N
31
Wind Variable Wind from SSW

Today
High -- | Low -- °F
--% Chance of Precip.
Yesterday
High -- | Low -- °F
Precip. -- in
Pressure 28.71 in
Visibility 5.0 miles
Clouds Mostly Cloudy 3300 ft
Windchill 30 °F
Dew Point 36 °F
Humidity 81%
Rainfall 0.00 in
Snow Depth Not available.
7:57 AM 4:58 PM
Waning Crescent, 2% visible
METAR EGPH 071050Z AUTO 20027KT 8000 -RA BKN033/// //////TCU 05/02 Q0972
Pressure 28.71 in
Visibility 5.0 miles
Clouds Mostly Cloudy 3300 ft
Windchill 30 °F
Dew Point 36 °F
Humidity 81%
Rainfall 0.00 in
Snow Depth Not available.
7:57 AM 4:58 PM
Waning Crescent, 2% visible
METAR EGPH 071050Z AUTO 20027KT 8000 -RA BKN033/// //////TCU 05/02 Q0972

10-Day Weather Forecast

Almanac

Astronomy

Feb. 07, 2016 Rise Set
Actual Time
Civil Twilight
Nautical Twilight
Astronomical Twilight
Moon
Length of Visible Light
Length of Day
Tomorrow will be .
, % of the Moon is Illuminated

Today's Extremes

Country Highs Country Lows

Community

WunderPhotos

Upload Photos

1,891,170 photos uploaded!

WunderBlog® & News

Nearby

Air Quality

  Air Quality AQ Index Pollutant
Not available.

Snow Depth

Station Depth Elevation

Earthquake Activity

City Distance Mag. Time & Date
Minimum magnitude displayed is 2.5.

Coastal Water Temperatures

Place Temperature

Stations

Nearby Weather Stations

Station Location Temp. Windchill Dew Point Humidity Wind Precip. Elev Updated Type